createdAt,value
2022-08-04T00:00:08.034Z,23.04
2022-08-04T00:02:49.304Z,23.16
2022-08-04T00:05:30.469Z,22.98
2022-08-04T00:08:08.440Z,22.82
2022-08-04T00:10:40.503Z,22.24
2022-08-04T00:13:09.633Z,22.89
2022-08-04T00:15:39.199Z,22.85
2022-08-04T00:18:10.359Z,22.30
2022-08-04T00:20:41.204Z,21.88
2022-08-04T00:23:10.311Z,22.11
2022-08-04T00:25:42.425Z,22.09
2022-08-04T00:28:10.548Z,22.12
2022-08-04T00:30:39.015Z,22.39
2022-08-04T00:33:08.433Z,22.19
2022-08-04T00:35:37.429Z,21.86
2022-08-04T00:38:06.316Z,21.87
2022-08-04T00:40:43.612Z,21.98
2022-08-04T00:43:20.113Z,22.16
2022-08-04T00:46:18.826Z,21.69
2022-08-04T00:48:58.249Z,22.19
2022-08-04T00:51:38.784Z,22.15
2022-08-04T00:54:19.240Z,22.30
2022-08-04T00:57:33.625Z,22.33
2022-08-04T01:00:10.979Z,21.58
2022-08-04T01:02:50.248Z,21.79
2022-08-04T01:05:26.988Z,20.82
2022-08-04T01:08:11.282Z,22.10
2022-08-04T01:10:56.626Z,21.64
2022-08-04T01:13:51.980Z,22.23
2022-08-04T01:16:26.492Z,21.94
2022-08-04T01:19:01.223Z,21.82
2022-08-04T01:22:01.560Z,22.19
2022-08-04T01:25:08.292Z,22.15
2022-08-04T01:28:04.758Z,21.37
2022-08-04T01:30:40.655Z,21.33
2022-08-04T01:33:14.110Z,21.34
2022-08-04T01:35:49.020Z,21.76
2022-08-04T01:38:21.431Z,21.06
2022-08-04T01:40:54.345Z,21.44
2022-08-04T01:43:22.867Z,21.86
2022-08-04T01:45:58.071Z,21.43
2022-08-04T01:48:27.382Z,21.85
2022-08-04T01:50:58.878Z,21.45
2022-08-04T01:53:32.015Z,21.66
2022-08-04T01:56:01.929Z,21.61
2022-08-04T01:58:31.609Z,21.46
2022-08-04T02:01:08.134Z,22.02
2022-08-04T02:04:19.520Z,21.85
2022-08-04T02:06:33.540Z,21.84
2022-08-04T02:09:10.796Z,21.21
2022-08-04T02:11:42.555Z,21.87
2022-08-04T02:14:36.457Z,21.02
2022-08-04T02:17:11.603Z,21.18
2022-08-04T02:19:54.899Z,21.83
2022-08-04T02:22:23.927Z,21.64
2022-08-04T02:24:59.427Z,21.60
2022-08-04T02:27:59.356Z,20.87
2022-08-04T02:30:32.937Z,21.39
2022-08-04T02:33:05.664Z,21.01
2022-08-04T02:35:37.798Z,21.56
2022-08-04T02:38:14.218Z,21.37
2022-08-04T02:40:44.380Z,21.76
2022-08-04T02:43:14.204Z,21.19
2022-08-04T02:45:44.239Z,21.34
2022-08-04T02:48:29.934Z,21.44
2022-08-04T02:51:02.378Z,21.70
2022-08-04T02:53:32.630Z,21.94
2022-08-04T02:56:03.782Z,21.19
2022-08-04T02:58:36.137Z,21.07
2022-08-04T03:01:04.388Z,21.56
2022-08-04T03:03:40.920Z,21.40
2022-08-04T03:06:39.060Z,21.46
2022-08-04T03:09:28.296Z,20.77
2022-08-04T03:12:29.322Z,21.41
2022-08-04T03:15:20.106Z,21.32
2022-08-04T03:18:30.685Z,21.30
2022-08-04T03:21:35.709Z,20.89
2022-08-04T03:24:33.788Z,21.14
2022-08-04T03:27:37.712Z,20.48
2022-08-04T03:30:12.873Z,20.92
2022-08-04T03:33:14.173Z,21.02
2022-08-04T03:36:31.935Z,21.15
2022-08-04T03:39:33.129Z,21.00
2022-08-04T03:42:28.752Z,20.57
2022-08-04T03:45:25.049Z,20.09
2022-08-04T03:48:08.644Z,20.72
2022-08-04T03:51:35.594Z,20.86
2022-08-04T03:54:35.446Z,20.40
2022-08-04T03:57:32.962Z,20.78
2022-08-04T04:00:10.118Z,20.87
2022-08-04T04:03:30.682Z,20.54
2022-08-04T04:06:21.451Z,20.84
2022-08-04T04:09:16.265Z,20.33
2022-08-04T04:12:15.968Z,20.58
2022-08-04T04:14:56.560Z,20.35
2022-08-04T04:18:12.247Z,20.86
2022-08-04T04:20:59.219Z,20.75
2022-08-04T04:23:49.916Z,20.03
2022-08-04T04:26:38.822Z,19.81
2022-08-04T04:29:31.376Z,21.00
2022-08-04T04:32:14.742Z,21.36
2022-08-04T04:34:58.388Z,20.82
2022-08-04T04:37:52.514Z,21.20
2022-08-04T04:40:34.157Z,20.72
2022-08-04T04:43:17.711Z,21.20
2022-08-04T04:45:57.228Z,21.27
2022-08-04T04:48:35.810Z,21.35
2022-08-04T04:51:15.384Z,21.11
2022-08-04T04:53:59.937Z,21.16
2022-08-04T04:56:36.380Z,20.88
2022-08-04T04:59:10.185Z,21.63
2022-08-04T05:01:56.646Z,21.04
2022-08-04T05:05:18.037Z,21.63
2022-08-04T05:08:42.774Z,20.70
2022-08-04T05:11:05.801Z,21.26
2022-08-04T05:14:35.370Z,21.33
2022-08-04T05:16:28.538Z,21.34
2022-08-04T05:19:12.855Z,21.21
2022-08-04T05:21:46.714Z,21.80
2022-08-04T05:24:18.966Z,21.86
2022-08-04T05:26:51.301Z,21.93
2022-08-04T05:29:30.881Z,21.83
2022-08-04T05:32:03.002Z,22.38
2022-08-04T05:34:36.855Z,22.31
2022-08-04T05:37:10.425Z,22.34
2022-08-04T05:39:47.200Z,22.64
2022-08-04T05:42:16.439Z,22.01
2022-08-04T05:44:50.422Z,21.34
2022-08-04T05:47:21.640Z,22.21
2022-08-04T05:49:55.548Z,22.21
2022-08-04T05:52:30.259Z,21.75
2022-08-04T05:55:00.516Z,21.60
2022-08-04T05:57:29.684Z,21.56
2022-08-04T06:00:14.622Z,21.89
2022-08-04T06:02:51.274Z,22.22
2022-08-04T06:05:21.242Z,22.73
2022-08-04T06:08:12.419Z,22.50
2022-08-04T06:10:41.074Z,22.61
2022-08-04T06:13:48.650Z,21.96
2022-08-04T06:16:04.076Z,22.60
2022-08-04T06:20:02.665Z,22.73
2022-08-04T06:21:28.452Z,22.49
2022-08-04T06:24:04.338Z,22.73
2022-08-04T06:26:35.992Z,22.94
2022-08-04T06:29:05.605Z,23.28
2022-08-04T06:32:30.810Z,23.27
2022-08-04T06:34:36.169Z,23.37
2022-08-04T06:37:06.795Z,23.55
2022-08-04T06:39:35.556Z,23.42
2022-08-04T06:42:21.506Z,23.63
2022-08-04T06:44:52.422Z,23.88
2022-08-04T06:47:22.568Z,23.90
2022-08-04T06:51:24.427Z,23.99
2022-08-04T06:52:46.257Z,24.12
2022-08-04T06:55:14.825Z,24.30
2022-08-04T06:57:45.272Z,24.12
2022-08-04T07:00:15.652Z,24.64
2022-08-04T07:02:47.313Z,24.76
2022-08-04T07:05:16.444Z,24.86
2022-08-04T07:07:56.816Z,24.64
2022-08-04T07:10:28.567Z,24.45
2022-08-04T07:12:57.956Z,24.71
2022-08-04T07:15:26.948Z,24.67
2022-08-04T07:18:00.359Z,24.44
2022-08-04T07:20:34.576Z,24.51
2022-08-04T07:23:07.641Z,24.68
2022-08-04T07:26:11.266Z,24.72
2022-08-04T07:28:27.917Z,25.18
2022-08-04T07:30:57.480Z,25.29
2022-08-04T07:33:26.253Z,25.29
2022-08-04T07:36:10.759Z,25.34
2022-08-04T07:38:51.255Z,25.62
2022-08-04T07:41:39.363Z,25.93
2022-08-04T07:44:09.055Z,25.95
2022-08-04T07:46:37.738Z,25.78
2022-08-04T07:49:06.451Z,26.16
2022-08-04T07:51:36.398Z,25.94
2022-08-04T07:54:07.855Z,25.72
2022-08-04T07:56:38.545Z,26.06
2022-08-04T07:59:06.881Z,26.24
2022-08-04T08:01:36.500Z,26.27
2022-08-04T08:04:08.110Z,26.60
2022-08-04T08:06:42.589Z,26.53
2022-08-04T08:09:14.728Z,26.43
2022-08-04T08:12:35.374Z,26.67
2022-08-04T08:14:32.557Z,26.76
2022-08-04T08:17:02.647Z,26.90
2022-08-04T08:19:31.585Z,26.84
2022-08-04T08:22:01.236Z,27.07
2022-08-04T08:24:32.454Z,27.13
2022-08-04T08:27:01.193Z,27.22
2022-08-04T08:29:30.634Z,27.17
2022-08-04T08:32:02.878Z,27.34
2022-08-04T08:34:35.345Z,27.10
2022-08-04T08:37:11.185Z,27.49
2022-08-04T08:39:44.435Z,27.66
2022-08-04T08:42:42.570Z,27.83
2022-08-04T08:45:32.424Z,27.86
2022-08-04T08:48:17.217Z,28.05
2022-08-04T08:51:09.435Z,28.01
2022-08-04T08:53:52.227Z,28.13
2022-08-04T08:56:32.938Z,27.82
2022-08-04T08:59:27.371Z,27.97
2022-08-04T09:02:11.767Z,28.18
2022-08-04T09:04:59.535Z,28.23
2022-08-04T09:07:44.716Z,28.33
2022-08-04T09:10:20.177Z,27.86
2022-08-04T09:12:55.690Z,28.23
2022-08-04T09:15:30.959Z,28.16
2022-08-04T09:18:06.525Z,28.85
2022-08-04T09:20:41.150Z,29.17
2022-08-04T09:23:18.880Z,29.29
2022-08-04T09:25:54.531Z,29.36
2022-08-04T09:28:52.307Z,28.96
2022-08-04T09:31:18.472Z,28.97
2022-08-04T09:33:54.747Z,28.68
2022-08-04T09:36:33.277Z,28.83
2022-08-04T09:39:09.611Z,29.11
2022-08-04T09:41:49.054Z,29.25
2022-08-04T09:44:50.053Z,29.43
2022-08-04T09:47:26.124Z,29.39
2022-08-04T09:50:17.837Z,29.61
2022-08-04T09:52:56.913Z,29.70
2022-08-04T09:55:54.798Z,29.89
2022-08-04T09:58:41.917Z,30.06
2022-08-04T10:01:19.858Z,30.13
2022-08-04T10:03:53.377Z,30.23
2022-08-04T10:06:44.068Z,30.32
2022-08-04T10:09:34.172Z,30.43
2022-08-04T10:12:18.999Z,30.60
2022-08-04T10:14:54.219Z,30.79
2022-08-04T10:17:36.150Z,30.75
2022-08-04T10:20:10.984Z,30.79
2022-08-04T10:23:09.290Z,30.86
2022-08-04T10:26:05.508Z,30.98
2022-08-04T10:28:43.405Z,30.79
2022-08-04T10:31:20.294Z,30.71
2022-08-04T10:33:55.992Z,30.97
2022-08-04T10:36:29.710Z,31.21
2022-08-04T10:39:07.073Z,31.36
2022-08-04T10:41:48.429Z,31.22
2022-08-04T10:44:24.734Z,31.00
2022-08-04T10:46:56.953Z,30.52
2022-08-04T10:49:36.880Z,30.62
2022-08-04T10:52:12.997Z,30.70
2022-08-04T10:54:49.732Z,30.52
2022-08-04T10:57:27.250Z,30.47
2022-08-04T11:00:04.781Z,30.62
2022-08-04T11:02:39.273Z,30.62
2022-08-04T11:05:18.656Z,30.87
2022-08-04T11:07:51.267Z,30.94
2022-08-04T11:10:22.730Z,31.22
2022-08-04T11:13:02.056Z,31.33
2022-08-04T11:15:37.811Z,30.98
2022-08-04T11:18:16.435Z,30.76
2022-08-04T11:20:54.488Z,30.96
2022-08-04T11:23:28.309Z,30.83
2022-08-04T11:26:01.207Z,31.26
2022-08-04T11:28:40.386Z,31.31
2022-08-04T11:31:12.560Z,31.11
2022-08-04T11:33:48.681Z,31.05
2022-08-04T11:36:23.914Z,31.30
2022-08-04T11:39:00.646Z,31.37
2022-08-04T11:41:40.877Z,31.37
2022-08-04T11:44:18.194Z,30.77
2022-08-04T11:46:53.200Z,30.70
2022-08-04T11:49:30.646Z,30.88
2022-08-04T11:52:02.360Z,30.55
2022-08-04T11:54:33.567Z,29.81
2022-08-04T11:57:02.943Z,30.11
2022-08-04T11:59:33.114Z,30.31
2022-08-04T12:02:21.282Z,30.51
2022-08-04T12:04:57.714Z,30.77
2022-08-04T12:07:41.177Z,30.75
2022-08-04T12:10:40.284Z,31.01
2022-08-04T12:13:26.000Z,31.09
2022-08-04T12:16:04.413Z,31.27
2022-08-04T12:18:40.444Z,31.33
2022-08-04T12:21:15.019Z,31.48
2022-08-04T12:23:46.389Z,31.75
2022-08-04T12:26:22.238Z,31.95
2022-08-04T12:29:09.523Z,32.26
2022-08-04T12:31:46.379Z,32.37
2022-08-04T12:34:18.478Z,32.38
2022-08-04T12:36:55.799Z,32.45
2022-08-04T12:39:28.445Z,32.68
2022-08-04T12:42:04.798Z,32.64
2022-08-04T12:44:37.828Z,32.38
2022-08-04T12:47:28.348Z,32.43
2022-08-04T12:50:03.832Z,32.50
2022-08-04T12:53:01.686Z,31.92
2022-08-04T12:55:29.334Z,32.17
2022-08-04T12:57:58.677Z,32.25
2022-08-04T13:00:33.219Z,32.27
2022-08-04T13:03:10.498Z,32.73
2022-08-04T13:05:41.905Z,32.86
2022-08-04T13:08:12.435Z,32.63
2022-08-04T13:10:45.158Z,32.49
2022-08-04T13:13:17.212Z,32.00
2022-08-04T13:15:57.100Z,32.09
2022-08-04T13:18:29.957Z,32.06
2022-08-04T13:21:19.495Z,31.35
2022-08-04T13:24:10.002Z,31.35
2022-08-04T13:26:54.816Z,30.51
2022-08-04T13:29:59.201Z,31.26
2022-08-04T13:32:23.498Z,31.34
2022-08-04T13:34:55.126Z,31.18
2022-08-04T13:37:27.095Z,30.75
2022-08-04T13:39:56.976Z,31.83
2022-08-04T13:42:28.473Z,31.80
2022-08-04T13:45:01.296Z,31.97
2022-08-04T13:47:34.180Z,32.08
2022-08-04T13:50:13.344Z,32.10
2022-08-04T13:52:42.287Z,32.09
2022-08-04T13:55:20.250Z,32.22
2022-08-04T13:57:54.690Z,32.38
2022-08-04T14:00:29.865Z,32.47
2022-08-04T14:03:19.115Z,32.70
2022-08-04T14:06:07.999Z,32.96
2022-08-04T14:08:44.252Z,33.08
2022-08-04T14:12:06.631Z,33.11
2022-08-04T14:14:02.334Z,32.97
2022-08-04T14:16:30.426Z,33.07
2022-08-04T14:19:02.706Z,32.88
2022-08-04T14:21:38.208Z,32.92
2022-08-04T14:24:06.923Z,32.51
2022-08-04T14:26:37.118Z,31.99
2022-08-04T14:29:28.162Z,32.10
2022-08-04T14:32:03.094Z,32.61
2022-08-04T14:34:33.481Z,32.54
2022-08-04T14:37:17.663Z,32.27
2022-08-04T14:40:19.186Z,31.82
2022-08-04T14:42:54.474Z,32.09
2022-08-04T14:45:34.036Z,31.83
2022-08-04T14:48:03.096Z,32.10
2022-08-04T14:50:36.241Z,31.90
2022-08-04T14:53:06.781Z,31.72
2022-08-04T14:55:35.247Z,31.77
2022-08-04T14:58:34.692Z,31.64
2022-08-04T15:00:55.763Z,31.75
2022-08-04T15:03:24.587Z,31.72
2022-08-04T15:06:00.034Z,31.58
2022-08-04T15:08:32.596Z,31.64
2022-08-04T15:11:02.998Z,31.63
2022-08-04T15:13:33.347Z,31.61
2022-08-04T15:16:08.171Z,31.56
2022-08-04T15:18:39.097Z,31.80
2022-08-04T15:21:08.704Z,31.82
2022-08-04T15:23:39.801Z,31.05
2022-08-04T15:26:11.587Z,31.69
2022-08-04T15:28:42.515Z,31.69
2022-08-04T15:32:07.044Z,31.28
2022-08-04T15:34:01.331Z,30.80
2022-08-04T15:36:39.835Z,30.68
2022-08-04T15:39:19.729Z,31.39
2022-08-04T15:41:57.664Z,31.37
2022-08-04T15:44:58.541Z,31.33
2022-08-04T15:47:28.390Z,30.82
2022-08-04T15:50:08.734Z,30.78
2022-08-04T15:53:10.761Z,31.00
2022-08-04T15:55:43.124Z,31.19
2022-08-04T15:58:14.097Z,31.28
2022-08-04T16:01:16.608Z,31.24
2022-08-04T16:03:59.131Z,30.96
2022-08-04T16:06:45.282Z,31.09
2022-08-04T16:09:45.239Z,31.18
2022-08-04T16:12:57.565Z,31.31
2022-08-04T16:15:39.521Z,31.06
2022-08-04T16:18:13.974Z,31.39
2022-08-04T16:20:58.084Z,31.46
2022-08-04T16:24:06.468Z,31.58
2022-08-04T16:26:54.975Z,31.70
2022-08-04T16:29:40.278Z,31.65
2022-08-04T16:32:22.631Z,31.13
2022-08-04T16:35:00.299Z,31.34
2022-08-04T16:37:35.033Z,31.40
2022-08-04T16:40:38.568Z,31.33
2022-08-04T16:43:09.853Z,30.70
2022-08-04T16:45:49.586Z,31.01
2022-08-04T16:48:18.756Z,30.33
2022-08-04T16:50:49.575Z,30.61
2022-08-04T16:54:03.930Z,30.15
2022-08-04T16:56:10.260Z,30.53
2022-08-04T16:58:53.659Z,29.98
2022-08-04T17:01:32.945Z,30.06
2022-08-04T17:04:05.435Z,29.46
2022-08-04T17:06:36.705Z,30.09
2022-08-04T17:09:08.929Z,29.93
2022-08-04T17:11:36.921Z,29.88
2022-08-04T17:14:06.435Z,30.15
2022-08-04T17:16:37.140Z,29.53
2022-08-04T17:19:06.451Z,29.57
2022-08-04T17:21:36.734Z,29.82
2022-08-04T17:24:14.288Z,29.41
2022-08-04T17:26:53.770Z,29.95
2022-08-04T17:29:43.078Z,29.48
2022-08-04T17:32:18.750Z,29.45
2022-08-04T17:34:50.782Z,29.54
2022-08-04T17:40:10.787Z,29.74
2022-08-04T17:42:41.370Z,29.50
2022-08-04T17:48:00.503Z,29.63
2022-08-04T17:50:35.758Z,29.24
2022-08-04T17:53:11.597Z,29.56
2022-08-04T17:55:44.536Z,29.24
2022-08-04T17:58:21.106Z,29.51
2022-08-04T18:00:51.283Z,29.54
2022-08-04T18:03:24.879Z,29.17
2022-08-04T18:06:03.362Z,28.90
2022-08-04T18:11:22.192Z,29.41
2022-08-04T18:13:57.002Z,29.34
2022-08-04T18:16:25.343Z,29.26
2022-08-04T18:19:12.186Z,29.23
2022-08-04T18:21:46.125Z,28.99
2022-08-04T18:24:34.017Z,29.13
2022-08-04T18:27:20.362Z,28.86
2022-08-04T18:30:15.390Z,28.53
2022-08-04T18:32:36.780Z,28.81
2022-08-04T18:35:19.642Z,28.89
2022-08-04T18:38:06.747Z,28.31
2022-08-04T18:40:54.212Z,28.81
2022-08-04T18:43:28.716Z,28.69
2022-08-04T18:45:59.452Z,28.81
2022-08-04T18:51:22.930Z,28.71
2022-08-04T18:53:54.984Z,28.68
2022-08-04T18:56:29.215Z,27.94
2022-08-04T18:59:03.049Z,28.14
2022-08-04T19:02:13.434Z,28.57
2022-08-04T19:04:33.743Z,28.17
2022-08-04T19:07:24.479Z,28.45
2022-08-04T19:09:58.034Z,28.50
2022-08-04T19:12:28.511Z,28.41
2022-08-04T19:15:08.864Z,27.75
2022-08-04T19:17:55.188Z,28.01
2022-08-04T19:20:27.145Z,28.00
2022-08-04T19:24:26.897Z,28.16
2022-08-04T19:25:58.933Z,27.38
2022-08-04T19:28:35.240Z,27.49
2022-08-04T19:31:07.644Z,28.09
2022-08-04T19:33:58.532Z,27.89
2022-08-04T19:36:28.763Z,27.62
2022-08-04T19:38:58.163Z,27.16
2022-08-04T19:41:26.968Z,27.42
2022-08-04T19:43:56.858Z,27.60
2022-08-04T19:46:28.725Z,26.73
2022-08-04T19:48:58.954Z,27.23
2022-08-04T19:51:29.590Z,26.94
2022-08-04T19:54:02.368Z,27.21
2022-08-04T19:56:40.739Z,26.86
2022-08-04T19:59:10.156Z,26.63
2022-08-04T20:01:45.176Z,26.82
2022-08-04T20:04:14.598Z,27.15
2022-08-04T20:06:43.028Z,27.16
2022-08-04T20:09:24.786Z,26.56
2022-08-04T20:11:55.643Z,26.56
2022-08-04T20:14:32.184Z,26.18
2022-08-04T20:17:10.319Z,26.06
2022-08-04T20:19:38.854Z,26.14
2022-08-04T20:22:08.581Z,26.44
2022-08-04T20:25:01.077Z,26.13
2022-08-04T20:28:00.272Z,26.45
2022-08-04T20:30:29.242Z,26.25
2022-08-04T20:33:00.863Z,25.37
2022-08-04T20:35:29.355Z,26.12
2022-08-04T20:38:00.787Z,26.58
2022-08-04T20:40:29.991Z,26.60
2022-08-04T20:42:58.430Z,26.32
2022-08-04T20:45:55.623Z,26.05
2022-08-04T20:48:16.606Z,26.07
2022-08-04T20:50:46.754Z,25.85
2022-08-04T20:53:17.068Z,24.65
2022-08-04T20:55:54.807Z,24.82
2022-08-04T20:58:27.631Z,25.19
2022-08-04T21:00:57.127Z,24.87
2022-08-04T21:03:49.840Z,25.22
2022-08-04T21:06:15.718Z,24.65
2022-08-04T21:08:56.828Z,24.61
2022-08-04T21:11:32.626Z,24.34
2022-08-04T21:14:01.300Z,23.27
2022-08-04T21:16:55.700Z,23.79
2022-08-04T21:19:22.480Z,23.70
2022-08-04T21:21:53.552Z,24.19
2022-08-04T21:24:26.289Z,23.65
2022-08-04T21:26:57.258Z,24.24
2022-08-04T21:29:34.704Z,23.43
2022-08-04T21:32:05.868Z,24.32
2022-08-04T21:37:24.699Z,24.30
2022-08-04T21:40:15.281Z,24.47
2022-08-04T21:42:49.954Z,24.66
2022-08-04T21:45:21.551Z,23.81
2022-08-04T21:47:51.018Z,24.23
2022-08-04T21:50:20.762Z,24.50
2022-08-04T21:52:49.954Z,23.36
2022-08-04T21:55:19.145Z,24.01
2022-08-04T21:57:49.489Z,24.34
2022-08-04T22:00:20.190Z,23.70
2022-08-04T22:02:53.291Z,23.64
2022-08-04T22:05:23.274Z,23.85
2022-08-04T22:07:52.023Z,23.96
2022-08-04T22:10:32.303Z,23.82
2022-08-04T22:13:06.742Z,23.69
2022-08-04T22:16:04.523Z,23.89
2022-08-04T22:18:24.369Z,24.42
2022-08-04T22:20:56.792Z,24.30
2022-08-04T22:23:26.405Z,24.25
2022-08-04T22:25:56.015Z,23.51
2022-08-04T22:28:28.319Z,24.35
2022-08-04T22:30:57.909Z,23.74
2022-08-04T22:33:53.941Z,23.63
2022-08-04T22:36:17.726Z,23.88
2022-08-04T22:38:48.547Z,23.99
2022-08-04T22:41:21.923Z,23.65
2022-08-04T22:44:02.505Z,23.78
2022-08-04T22:46:31.749Z,23.92
2022-08-04T22:48:59.864Z,23.30
2022-08-04T22:51:29.590Z,23.67
2022-08-04T22:53:58.268Z,24.18
2022-08-04T22:56:38.031Z,24.03
2022-08-04T22:59:07.007Z,23.05
2022-08-04T23:01:59.242Z,24.34
2022-08-04T23:04:27.767Z,24.26
2022-08-04T23:06:57.219Z,24.21
2022-08-04T23:09:26.980Z,23.63
2022-08-04T23:12:28.899Z,23.72
2022-08-04T23:14:58.810Z,23.79
2022-08-04T23:17:28.607Z,23.54
2022-08-04T23:19:59.635Z,24.09
2022-08-04T23:22:41.297Z,23.53
2022-08-04T23:25:16.019Z,23.72
2022-08-04T23:27:50.798Z,23.39
2022-08-04T23:30:21.879Z,23.23
2022-08-04T23:32:54.238Z,21.86
2022-08-04T23:35:23.053Z,22.83
2022-08-04T23:37:57.014Z,22.66
2022-08-04T23:40:34.046Z,22.45
2022-08-04T23:43:12.142Z,22.19
2022-08-04T23:46:07.286Z,22.58
2022-08-04T23:48:34.310Z,22.84
2022-08-04T23:51:14.542Z,22.56
2022-08-04T23:54:02.253Z,22.62
2022-08-04T23:56:32.959Z,22.14
2022-08-04T23:59:03.405Z,22.39
